sensor_id;sensor_type;location;lat;lon;timestamp;pressure;altitude;pressure_sealevel;temperature;humidity
23241;BME280;11789;53.482;9.862;2023-04-22T00:01:46;101373.06;;;10.50;55.51
23241;BME280;11789;53.482;9.862;2023-04-22T00:04:12;101368.75;;;10.49;55.49
23241;BME280;11789;53.482;9.862;2023-04-22T00:06:39;101374.75;;;10.48;55.53
23241;BME280;11789;53.482;9.862;2023-04-22T00:09:04;101361.81;;;10.45;55.72
23241;BME280;11789;53.482;9.862;2023-04-22T00:11:30;101370.44;;;10.44;55.55
23241;BME280;11789;53.482;9.862;2023-04-22T00:13:55;101360.91;;;10.40;55.55
23241;BME280;11789;53.482;9.862;2023-04-22T00:16:21;101359.16;;;10.39;55.50
23241;BME280;11789;53.482;9.862;2023-04-22T00:18:46;101355.72;;;10.37;55.66
23241;BME280;11789;53.482;9.862;2023-04-22T00:21:12;101353.94;;;10.33;55.70
23241;BME280;11789;53.482;9.862;2023-04-22T00:23:37;101347.91;;;10.34;55.47
23241;BME280;11789;53.482;9.862;2023-04-22T00:26:03;101337.63;;;10.35;55.64
23241;BME280;11789;53.482;9.862;2023-04-22T00:28:28;101335.00;;;10.32;55.71
23241;BME280;11789;53.482;9.862;2023-04-22T00:30:54;101334.09;;;10.29;55.82
23241;BME280;11789;53.482;9.862;2023-04-22T00:33:19;101332.41;;;10.29;55.83
23241;BME280;11789;53.482;9.862;2023-04-22T00:35:47;101329.78;;;10.26;56.03
23241;BME280;11789;53.482;9.862;2023-04-22T00:38:14;101330.56;;;10.22;56.13
23241;BME280;11789;53.482;9.862;2023-04-22T00:40:39;101326.25;;;10.20;56.24
23241;BME280;11789;53.482;9.862;2023-04-22T00:43:07;101321.94;;;10.20;56.06
23241;BME280;11789;53.482;9.862;2023-04-22T00:45:35;101327.09;;;10.19;56.27
23241;BME280;11789;53.482;9.862;2023-04-22T00:48:01;101321.91;;;10.14;56.48
23241;BME280;11789;53.482;9.862;2023-04-22T00:50:27;101320.22;;;10.21;56.03
23241;BME280;11789;53.482;9.862;2023-04-22T00:52:55;101322.81;;;10.19;56.05
23241;BME280;11789;53.482;9.862;2023-04-22T00:55:21;101318.47;;;10.17;56.36
23241;BME280;11789;53.482;9.862;2023-04-22T00:57:48;101315.06;;;10.19;56.15
23241;BME280;11789;53.482;9.862;2023-04-22T01:00:16;101308.13;;;10.17;56.17
23241;BME280;11789;53.482;9.862;2023-04-22T01:02:41;101304.69;;;10.14;56.40
23241;BME280;11789;53.482;9.862;2023-04-22T01:05:08;101312.44;;;10.14;56.18
23241;BME280;11789;53.482;9.862;2023-04-22T01:07:34;101309.00;;;10.17;56.15
23241;BME280;11789;53.482;9.862;2023-04-22T01:10:01;101302.06;;;10.11;56.51
23241;BME280;11789;53.482;9.862;2023-04-22T01:12:26;101302.03;;;10.08;56.46
23241;BME280;11789;53.482;9.862;2023-04-22T01:14:52;101296.84;;;10.05;56.83
23241;BME280;11789;53.482;9.862;2023-04-22T01:17:17;101295.97;;;10.03;56.93
23241;BME280;11789;53.482;9.862;2023-04-22T01:19:44;101298.53;;;10.02;56.89
23241;BME280;11789;53.482;9.862;2023-04-22T01:22:12;101292.50;;;10.03;56.92
23241;BME280;11789;53.482;9.862;2023-04-22T01:24:37;101295.09;;;10.00;57.01
23241;BME280;11789;53.482;9.862;2023-04-22T01:27:03;101297.63;;;9.95;57.30
23241;BME280;11789;53.482;9.862;2023-04-22T01:29:29;101290.75;;;9.94;57.53
23241;BME280;11789;53.482;9.862;2023-04-22T01:31:55;101286.44;;;9.95;57.42
23241;BME280;11789;53.482;9.862;2023-04-22T01:34:22;101292.41;;;9.91;57.59
23241;BME280;11789;53.482;9.862;2023-04-22T01:36:49;101295.00;;;9.89;57.78
23241;BME280;11789;53.482;9.862;2023-04-22T01:39:14;101286.38;;;9.88;57.83
23241;BME280;11789;53.482;9.862;2023-04-22T01:41:40;101282.03;;;9.84;57.86
23241;BME280;11789;53.482;9.862;2023-04-22T01:44:06;101279.41;;;9.78;58.36
23241;BME280;11789;53.482;9.862;2023-04-22T01:46:32;101281.09;;;9.78;58.45
23241;BME280;11789;53.482;9.862;2023-04-22T01:48:58;101273.34;;;9.78;58.45
23241;BME280;11789;53.482;9.862;2023-04-22T01:51:23;101279.38;;;9.75;58.50
23241;BME280;11789;53.482;9.862;2023-04-22T01:53:49;101274.16;;;9.72;58.84
23241;BME280;11789;53.482;9.862;2023-04-22T01:56:15;101268.97;;;9.68;59.23
23241;BME280;11789;53.482;9.862;2023-04-22T01:58:41;101270.63;;;9.61;59.47
23241;BME280;11789;53.482;9.862;2023-04-22T02:01:11;101278.38;;;9.59;59.64
23241;BME280;11789;53.482;9.862;2023-04-22T02:03:38;101267.13;;;9.56;59.92
23241;BME280;11789;53.482;9.862;2023-04-22T02:06:04;101261.97;;;9.54;60.23
23241;BME280;11789;53.482;9.862;2023-04-22T02:08:29;101268.84;;;9.54;60.20
23241;BME280;11789;53.482;9.862;2023-04-22T02:10:55;101258.47;;;9.51;60.45
23241;BME280;11789;53.482;9.862;2023-04-22T02:13:21;101255.00;;;9.46;60.75
23241;BME280;11789;53.482;9.862;2023-04-22T02:15:47;101254.13;;;9.45;60.70
23241;BME280;11789;53.482;9.862;2023-04-22T02:18:12;101251.53;;;9.44;60.95
23241;BME280;11789;53.482;9.862;2023-04-22T02:20:38;101245.50;;;9.43;61.06
23241;BME280;11789;53.482;9.862;2023-04-22T02:23:04;101240.31;;;9.40;61.18
23241;BME280;11789;53.482;9.862;2023-04-22T02:25:29;101236.87;;;9.41;61.25
23241;BME280;11789;53.482;9.862;2023-04-22T02:27:56;101232.56;;;9.40;61.32
23241;BME280;11789;53.482;9.862;2023-04-22T02:30:49;101234.25;;;9.36;61.61
23241;BME280;11789;53.482;9.862;2023-04-22T02:33:16;101236.81;;;9.33;61.77
23241;BME280;11789;53.482;9.862;2023-04-22T02:35:41;101236.75;;;9.29;62.13
23241;BME280;11789;53.482;9.862;2023-04-22T02:38:07;101229.87;;;9.28;62.15
23241;BME280;11789;53.482;9.862;2023-04-22T02:40:32;101219.50;;;9.25;62.45
23241;BME280;11789;53.482;9.862;2023-04-22T02:42:57;101221.22;;;9.23;62.56
23241;BME280;11789;53.482;9.862;2023-04-22T02:45:23;101217.78;;;9.24;62.52
23241;BME280;11789;53.482;9.862;2023-04-22T02:47:48;101219.47;;;9.22;62.58
23241;BME280;11789;53.482;9.862;2023-04-22T02:50:14;101211.72;;;9.19;62.89
23241;BME280;11789;53.482;9.862;2023-04-22T02:52:39;101215.12;;;9.16;63.22
23241;BME280;11789;53.482;9.862;2023-04-22T02:55:05;101210.00;;;9.19;63.07
23241;BME280;11789;53.482;9.862;2023-04-22T02:57:31;101210.81;;;9.17;63.12
23241;BME280;11789;53.482;9.862;2023-04-22T02:59:56;101209.94;;;9.15;63.51
23241;BME280;11789;53.482;9.862;2023-04-22T03:02:22;101209.09;;;9.16;63.49
23241;BME280;11789;53.482;9.862;2023-04-22T03:04:47;101198.78;;;9.16;63.58
23241;BME280;11789;53.482;9.862;2023-04-22T03:07:13;101196.19;;;9.17;63.52
23241;BME280;11789;53.482;9.862;2023-04-22T03:09:38;101192.75;;;9.15;63.57
23241;BME280;11789;53.482;9.862;2023-04-22T03:12:04;101194.47;;;9.15;63.69
23241;BME280;11789;53.482;9.862;2023-04-22T03:14:29;101197.84;;;9.10;63.91
23241;BME280;11789;53.482;9.862;2023-04-22T03:16:55;101199.63;;;9.13;63.75
23241;BME280;11789;53.482;9.862;2023-04-22T03:19:20;101199.56;;;9.08;64.12
23241;BME280;11789;53.482;9.862;2023-04-22T03:21:46;101194.38;;;9.05;64.24
23241;BME280;11789;53.482;9.862;2023-04-22T03:24:11;101191.78;;;9.02;64.61
23241;BME280;11789;53.482;9.862;2023-04-22T03:26:36;101192.59;;;9.01;64.64
23241;BME280;11789;53.482;9.862;2023-04-22T03:29:02;101184.03;;;9.02;64.55
23241;BME280;11789;53.482;9.862;2023-04-22T03:31:28;101182.28;;;9.00;64.76
23241;BME280;11789;53.482;9.862;2023-04-22T03:33:53;101188.28;;;9.00;64.90
23241;BME280;11789;53.482;9.862;2023-04-22T03:36:18;101184.81;;;8.95;65.13
23241;BME280;11789;53.482;9.862;2023-04-22T03:38:45;101179.69;;;8.98;65.06
23241;BME280;11789;53.482;9.862;2023-04-22T03:41:11;101177.91;;;8.94;65.30
23241;BME280;11789;53.482;9.862;2023-04-22T03:43:36;101176.16;;;8.90;65.59
23241;BME280;11789;53.482;9.862;2023-04-22T03:46:01;101169.22;;;8.86;65.78
23241;BME280;11789;53.482;9.862;2023-04-22T03:48:27;101160.62;;;8.86;66.04
23241;BME280;11789;53.482;9.862;2023-04-22T03:51:00;101159.75;;;8.83;66.14
23241;BME280;11789;53.482;9.862;2023-04-22T03:53:25;101156.31;;;8.83;66.26
23241;BME280;11789;53.482;9.862;2023-04-22T03:55:51;101151.13;;;8.78;66.62
23241;BME280;11789;53.482;9.862;2023-04-22T03:58:16;101158.84;;;8.80;66.75
23241;BME280;11789;53.482;9.862;2023-04-22T04:00:42;101159.72;;;8.79;66.62
23241;BME280;11789;53.482;9.862;2023-04-22T04:03:07;101151.97;;;8.77;66.81
23241;BME280;11789;53.482;9.862;2023-04-22T04:05:33;101150.22;;;8.76;66.90
23241;BME280;11789;53.482;9.862;2023-04-22T04:07:58;101140.75;;;8.74;67.14
23241;BME280;11789;53.482;9.862;2023-04-22T04:10:24;101139.91;;;8.76;67.16
23241;BME280;11789;53.482;9.862;2023-04-22T04:12:49;101145.84;;;8.71;67.43
23241;BME280;11789;53.482;9.862;2023-04-22T04:15:15;101132.16;;;8.72;67.49
23241;BME280;11789;53.482;9.862;2023-04-22T04:17:43;101129.56;;;8.72;67.52
23241;BME280;11789;53.482;9.862;2023-04-22T04:20:09;101137.31;;;8.73;67.65
23241;BME280;11789;53.482;9.862;2023-04-22T04:22:34;101139.88;;;8.75;67.59
23241;BME280;11789;53.482;9.862;2023-04-22T04:25:00;101136.44;;;8.73;67.74
23241;BME280;11789;53.482;9.862;2023-04-22T04:27:26;101139.88;;;8.73;67.60
23241;BME280;11789;53.482;9.862;2023-04-22T04:29:52;101143.28;;;8.71;68.01
23241;BME280;11789;53.482;9.862;2023-04-22T04:32:17;101135.59;;;8.74;67.92
23241;BME280;11789;53.482;9.862;2023-04-22T04:34:43;101133.88;;;8.76;67.89
23241;BME280;11789;53.482;9.862;2023-04-22T04:37:08;101139.88;;;8.75;68.06
23241;BME280;11789;53.482;9.862;2023-04-22T04:39:34;101134.72;;;8.75;68.01
23241;BME280;11789;53.482;9.862;2023-04-22T04:41:59;101141.63;;;8.76;68.30
23241;BME280;11789;53.482;9.862;2023-04-22T04:44:25;101126.16;;;8.76;68.41
23241;BME280;11789;53.482;9.862;2023-04-22T04:46:51;101131.34;;;8.77;68.22
23241;BME280;11789;53.482;9.862;2023-04-22T04:49:19;101134.78;;;8.81;68.21
23241;BME280;11789;53.482;9.862;2023-04-22T04:51:45;101139.13;;;8.83;68.09
23241;BME280;11789;53.482;9.862;2023-04-22T04:54:10;101132.28;;;8.86;68.16
23241;BME280;11789;53.482;9.862;2023-04-22T04:56:35;101125.44;;;8.89;68.17
23241;BME280;11789;53.482;9.862;2023-04-22T04:59:01;101114.28;;;8.90;68.08
23241;BME280;11789;53.482;9.862;2023-04-22T05:01:26;101113.47;;;8.94;68.02
23241;BME280;11789;53.482;9.862;2023-04-22T05:03:52;101115.19;;;8.97;68.21
23241;BME280;11789;53.482;9.862;2023-04-22T05:06:17;101141.91;;;9.03;67.74
23241;BME280;11789;53.482;9.862;2023-04-22T05:08:43;101141.94;;;9.05;67.80
23241;BME280;11789;53.482;9.862;2023-04-22T05:11:08;101129.06;;;9.08;68.04
23241;BME280;11789;53.482;9.862;2023-04-22T05:13:33;101135.16;;;9.15;67.66
23241;BME280;11789;53.482;9.862;2023-04-22T05:15:59;101124.03;;;9.22;67.24
23241;BME280;11789;53.482;9.862;2023-04-22T05:18:24;101116.31;;;9.25;67.20
23241;BME280;11789;53.482;9.862;2023-04-22T05:20:50;101112.06;;;9.31;66.89
23241;BME280;11789;53.482;9.862;2023-04-22T05:23:15;101113.88;;;9.39;66.67
23241;BME280;11789;53.482;9.862;2023-04-22T05:25:41;101106.16;;;9.43;66.43
23241;BME280;11789;53.482;9.862;2023-04-22T05:28:07;101114.81;;;9.51;66.31
23241;BME280;11789;53.482;9.862;2023-04-22T05:30:32;101104.53;;;9.57;66.04
23241;BME280;11789;53.482;9.862;2023-04-22T05:32:58;101100.28;;;9.66;65.78
23241;BME280;11789;53.482;9.862;2023-04-22T05:35:23;101102.09;;;9.76;65.60
23241;BME280;11789;53.482;9.862;2023-04-22T05:37:49;101104.69;;;9.82;64.97
23241;BME280;11789;53.482;9.862;2023-04-22T05:40:14;101102.16;;;9.90;64.91
23241;BME280;11789;53.482;9.862;2023-04-22T05:42:40;101097.94;;;9.99;64.28
23241;BME280;11789;53.482;9.862;2023-04-22T05:45:06;101096.22;;;10.07;63.69
23241;BME280;11789;53.482;9.862;2023-04-22T05:47:32;101094.53;;;10.12;63.78
23241;BME280;11789;53.482;9.862;2023-04-22T05:49:57;101105.78;;;10.21;63.43
23241;BME280;11789;53.482;9.862;2023-04-22T05:52:22;101092.00;;;10.22;63.41
23241;BME280;11789;53.482;9.862;2023-04-22T05:54:48;101091.22;;;10.32;63.28
23241;BME280;11789;53.482;9.862;2023-04-22T05:57:13;101081.75;;;10.38;62.98
23241;BME280;11789;53.482;9.862;2023-04-22T05:59:39;101092.13;;;10.48;62.68
23241;BME280;11789;53.482;9.862;2023-04-22T06:02:05;101091.28;;;10.56;62.85
23241;BME280;11789;53.482;9.862;2023-04-22T06:04:30;101099.06;;;10.69;62.01
23241;BME280;11789;53.482;9.862;2023-04-22T06:06:55;101094.78;;;10.78;61.79
23241;BME280;11789;53.482;9.862;2023-04-22T06:09:21;101100.84;;;10.89;61.39
23241;BME280;11789;53.482;9.862;2023-04-22T06:11:47;101094.84;;;10.95;60.99
23241;BME280;11789;53.482;9.862;2023-04-22T06:14:12;101098.28;;;11.05;60.82
23241;BME280;11789;53.482;9.862;2023-04-22T06:16:38;101093.09;;;11.14;60.51
23241;BME280;11789;53.482;9.862;2023-04-22T06:19:04;101094.84;;;11.20;60.32
23241;BME280;11789;53.482;9.862;2023-04-22T06:21:30;101093.09;;;11.25;60.09
23241;BME280;11789;53.482;9.862;2023-04-22T06:24:00;101101.75;;;11.36;59.50
23241;BME280;11789;53.482;9.862;2023-04-22T06:26:26;101090.56;;;11.35;59.78
23241;BME280;11789;53.482;9.862;2023-04-22T06:28:51;101090.53;;;11.44;59.58
23241;BME280;11789;53.482;9.862;2023-04-22T06:31:17;101086.22;;;11.51;59.55
23241;BME280;11789;53.482;9.862;2023-04-22T06:33:43;101088.78;;;11.59;59.19
23241;BME280;11789;53.482;9.862;2023-04-22T06:36:08;101100.03;;;11.61;59.01
23241;BME280;11789;53.482;9.862;2023-04-22T06:38:34;101087.91;;;11.67;59.03
23241;BME280;11789;53.482;9.862;2023-04-22T06:40:59;101093.94;;;11.79;58.87
23241;BME280;11789;53.482;9.862;2023-04-22T06:43:25;101090.50;;;11.74;59.14
23241;BME280;11789;53.482;9.862;2023-04-22T06:45:50;101090.50;;;11.81;59.30
23241;BME280;11789;53.482;9.862;2023-04-22T06:48:16;101088.72;;;11.95;59.03
23241;BME280;11789;53.482;9.862;2023-04-22T06:50:41;101093.88;;;12.09;58.52
23241;BME280;11789;53.482;9.862;2023-04-22T06:53:07;101086.06;;;12.20;58.45
23241;BME280;11789;53.482;9.862;2023-04-22T06:55:34;101083.47;;;12.25;57.55
23241;BME280;11789;53.482;9.862;2023-04-22T06:58:00;101079.16;;;12.24;57.81
23241;BME280;11789;53.482;9.862;2023-04-22T07:00:25;101079.16;;;12.27;57.69
23241;BME280;11789;53.482;9.862;2023-04-22T07:02:52;101082.59;;;12.32;58.19
23241;BME280;11789;53.482;9.862;2023-04-22T07:05:18;101073.84;;;12.46;58.42
23241;BME280;11789;53.482;9.862;2023-04-22T07:07:43;101072.13;;;12.49;57.60
23241;BME280;11789;53.482;9.862;2023-04-22T07:10:10;101079.00;;;12.57;57.48
23241;BME280;11789;53.482;9.862;2023-04-22T07:12:35;101073.78;;;12.60;57.26
23241;BME280;11789;53.482;9.862;2023-04-22T07:15:01;101083.19;;;12.75;57.51
23241;BME280;11789;53.482;9.862;2023-04-22T07:17:26;101074.47;;;12.88;57.19
23241;BME280;11789;53.482;9.862;2023-04-22T07:19:52;101070.06;;;12.99;57.02
23241;BME280;11789;53.482;9.862;2023-04-22T07:22:17;101070.84;;;13.09;57.08
23241;BME280;11789;53.482;9.862;2023-04-22T07:24:43;101062.97;;;13.24;56.71
23241;BME280;11789;53.482;9.862;2023-04-22T07:27:08;101070.59;;;13.44;56.23
23241;BME280;11789;53.482;9.862;2023-04-22T07:29:34;101071.34;;;13.56;55.67
23241;BME280;11789;53.482;9.862;2023-04-22T07:31:59;101060.72;;;13.77;55.23
23241;BME280;11789;53.482;9.862;2023-04-22T07:34:25;101065.81;;;13.86;54.64
23241;BME280;11789;53.482;9.862;2023-04-22T07:36:51;101058.81;;;13.94;54.77
23241;BME280;11789;53.482;9.862;2023-04-22T07:39:18;101054.28;;;14.09;54.32
23241;BME280;11789;53.482;9.862;2023-04-22T07:41:43;101048.94;;;14.22;54.64
23241;BME280;11789;53.482;9.862;2023-04-22T07:44:09;101047.84;;;14.39;53.46
23241;BME280;11789;53.482;9.862;2023-04-22T07:46:37;101049.47;;;14.49;53.53
23241;BME280;11789;53.482;9.862;2023-04-22T07:49:02;101047.53;;;14.63;53.12
23241;BME280;11789;53.482;9.862;2023-04-22T07:51:28;101048.22;;;14.76;52.68
23241;BME280;11789;53.482;9.862;2023-04-22T07:53:54;101042.88;;;14.85;53.31
23241;BME280;11789;53.482;9.862;2023-04-22T07:56:19;101052.31;;;14.92;52.41
23241;BME280;11789;53.482;9.862;2023-04-22T07:58:45;101043.44;;;15.04;52.14
23241;BME280;11789;53.482;9.862;2023-04-22T08:01:10;101035.44;;;15.15;52.04
23241;BME280;11789;53.482;9.862;2023-04-22T08:03:36;101029.09;;;15.29;52.09
23241;BME280;11789;53.482;9.862;2023-04-22T08:06:01;101031.75;;;15.28;51.79
23241;BME280;11789;53.482;9.862;2023-04-22T08:08:27;101025.72;;;15.24;51.60
23241;BME280;11789;53.482;9.862;2023-04-22T08:10:52;101026.22;;;15.45;51.76
23241;BME280;11789;53.482;9.862;2023-04-22T08:13:18;101017.31;;;15.58;51.04
23241;BME280;11789;53.482;9.862;2023-04-22T08:15:43;101019.81;;;15.64;50.89
23241;BME280;11789;53.482;9.862;2023-04-22T08:18:09;101028.38;;;15.72;50.97
23241;BME280;11789;53.482;9.862;2023-04-22T08:20:35;101024.09;;;15.68;50.86
23241;BME280;11789;53.482;9.862;2023-04-22T08:23:00;101032.66;;;15.75;50.95
23241;BME280;11789;53.482;9.862;2023-04-22T08:25:27;101020.25;;;15.86;50.62
23241;BME280;11789;53.482;9.862;2023-04-22T08:27:52;101027.44;;;16.18;50.27
23241;BME280;11789;53.482;9.862;2023-04-22T08:30:18;101018.53;;;16.27;50.07
23241;BME280;11789;53.482;9.862;2023-04-22T08:32:44;101019.94;;;16.42;49.57
23241;BME280;11789;53.482;9.862;2023-04-22T08:35:10;101019.69;;;16.52;48.92
23241;BME280;11789;53.482;9.862;2023-04-22T08:37:35;101011.81;;;16.55;49.33
23241;BME280;11789;53.482;9.862;2023-04-22T08:40:01;101013.81;;;16.44;49.96
23241;BME280;11789;53.482;9.862;2023-04-22T08:42:27;101011.22;;;16.44;49.45
23241;BME280;11789;53.482;9.862;2023-04-22T08:44:55;101001.84;;;16.74;48.97
23241;BME280;11789;53.482;9.862;2023-04-22T08:47:23;101004.81;;;16.95;48.60
23241;BME280;11789;53.482;9.862;2023-04-22T08:49:50;101009.44;;;17.19;48.18
23241;BME280;11789;53.482;9.862;2023-04-22T08:52:17;101015.97;;;17.35;47.63
23241;BME280;11789;53.482;9.862;2023-04-22T08:54:43;101016.47;;;17.48;47.74
23241;BME280;11789;53.482;9.862;2023-04-22T08:57:08;101003.22;;;17.56;46.80
23241;BME280;11789;53.482;9.862;2023-04-22T08:59:36;101007.59;;;17.55;46.69
23241;BME280;11789;53.482;9.862;2023-04-22T09:02:03;101007.09;;;17.74;46.97
23241;BME280;11789;53.482;9.862;2023-04-22T09:04:31;101000.13;;;18.04;46.80
23241;BME280;11789;53.482;9.862;2023-04-22T09:06:58;100995.34;;;18.18;46.17
23241;BME280;11789;53.482;9.862;2023-04-22T09:09:24;100991.03;;;18.17;45.85
23241;BME280;11789;53.482;9.862;2023-04-22T09:11:50;100998.53;;;18.28;46.34
23241;BME280;11789;53.482;9.862;2023-04-22T09:14:16;100990.84;;;18.23;45.53
23241;BME280;11789;53.482;9.862;2023-04-22T09:16:46;101001.78;;;18.36;46.62
23241;BME280;11789;53.482;9.862;2023-04-22T09:19:12;100991.75;;;18.50;45.25
23241;BME280;11789;53.482;9.862;2023-04-22T09:21:39;100999.97;;;18.66;45.75
23241;BME280;11789;53.482;9.862;2023-04-22T09:24:09;100998.75;;;18.78;44.22
23241;BME280;11789;53.482;9.862;2023-04-22T09:26:38;101000.47;;;18.79;44.14
23241;BME280;11789;53.482;9.862;2023-04-22T09:29:05;100990.84;;;18.79;44.15
23241;BME280;11789;53.482;9.862;2023-04-22T09:31:34;100997.88;;;19.04;44.82
23241;BME280;11789;53.482;9.862;2023-04-22T09:34:02;100990.22;;;18.98;43.74
23241;BME280;11789;53.482;9.862;2023-04-22T09:36:29;100988.97;;;19.09;43.99
23241;BME280;11789;53.482;9.862;2023-04-22T09:38:56;100983.50;;;19.15;44.01
23241;BME280;11789;53.482;9.862;2023-04-22T09:41:53;100980.00;;;19.16;43.16
23241;BME280;11789;53.482;9.862;2023-04-22T09:44:18;100975.84;;;19.09;43.53
23241;BME280;11789;53.482;9.862;2023-04-22T09:46:48;100978.38;;;19.12;43.36
23241;BME280;11789;53.482;9.862;2023-04-22T09:49:15;100977.03;;;19.26;43.28
23241;BME280;11789;53.482;9.862;2023-04-22T09:51:41;100973.38;;;19.31;43.26
23241;BME280;11789;53.482;9.862;2023-04-22T09:54:07;100966.22;;;19.35;43.31
23241;BME280;11789;53.482;9.862;2023-04-22T09:56:45;100961.84;;;19.35;43.13
23241;BME280;11789;53.482;9.862;2023-04-22T09:59:22;100955.25;;;19.49;42.76
23241;BME280;11789;53.482;9.862;2023-04-22T10:01:50;100955.31;;;19.47;43.27
23241;BME280;11789;53.482;9.862;2023-04-22T10:04:16;100950.00;;;19.49;43.00
23241;BME280;11789;53.482;9.862;2023-04-22T10:06:48;100945.63;;;19.49;43.23
23241;BME280;11789;53.482;9.862;2023-04-22T10:09:17;100947.81;;;19.61;43.37
23241;BME280;11789;53.482;9.862;2023-04-22T10:11:44;100951.66;;;19.51;43.10
23241;BME280;11789;53.482;9.862;2023-04-22T10:14:10;100946.69;;;19.43;43.40
23241;BME280;11789;53.482;9.862;2023-04-22T10:16:39;100947.78;;;19.63;43.37
23241;BME280;11789;53.482;9.862;2023-04-22T10:19:09;100946.91;;;19.62;42.60
23241;BME280;11789;53.482;9.862;2023-04-22T10:21:35;100946.84;;;19.64;43.28
23241;BME280;11789;53.482;9.862;2023-04-22T10:24:02;100949.37;;;19.67;42.73
23241;BME280;11789;53.482;9.862;2023-04-22T10:26:41;100940.84;;;19.60;42.75
23241;BME280;11789;53.482;9.862;2023-04-22T10:29:12;100925.56;;;19.72;42.44
23241;BME280;11789;53.482;9.862;2023-04-22T10:31:41;100927.16;;;19.76;42.67
23241;BME280;11789;53.482;9.862;2023-04-22T10:34:14;100922.91;;;19.73;42.00
23241;BME280;11789;53.482;9.862;2023-04-22T10:37:17;100916.81;;;19.73;42.23
23241;BME280;11789;53.482;9.862;2023-04-22T10:42:37;100917.22;;;20.07;42.29
23241;BME280;11789;53.482;9.862;2023-04-22T10:45:04;100914.87;;;20.21;41.85
23241;BME280;11789;53.482;9.862;2023-04-22T10:47:36;100918.31;;;20.24;42.21
23241;BME280;11789;53.482;9.862;2023-04-22T10:52:34;100900.72;;;20.26;41.67
23241;BME280;11789;53.482;9.862;2023-04-22T10:55:00;100899.09;;;20.23;40.96
23241;BME280;11789;53.482;9.862;2023-04-22T10:57:31;100898.09;;;20.26;41.56
23241;BME280;11789;53.482;9.862;2023-04-22T11:00:20;100888.19;;;20.32;40.78
23241;BME280;11789;53.482;9.862;2023-04-22T11:02:50;100889.47;;;20.44;40.96
23241;BME280;11789;53.482;9.862;2023-04-22T11:05:21;100883.56;;;20.39;40.89
23241;BME280;11789;53.482;9.862;2023-04-22T11:07:48;100878.25;;;20.40;40.53
23241;BME280;11789;53.482;9.862;2023-04-22T11:10:37;100877.44;;;20.60;41.99
23241;BME280;11789;53.482;9.862;2023-04-22T11:13:06;100869.03;;;20.72;40.09
23241;BME280;11789;53.482;9.862;2023-04-22T11:15:34;100866.56;;;20.69;39.98
23241;BME280;11789;53.482;9.862;2023-04-22T11:18:00;100862.47;;;20.62;40.49
23241;BME280;11789;53.482;9.862;2023-04-22T11:20:27;100862.47;;;20.62;41.12
23241;BME280;11789;53.482;9.862;2023-04-22T11:22:54;100867.47;;;20.68;40.95
23241;BME280;11789;53.482;9.862;2023-04-22T11:25:22;100857.66;;;20.72;41.29
23241;BME280;11789;53.482;9.862;2023-04-22T11:27:48;100847.50;;;20.85;40.66
23241;BME280;11789;53.482;9.862;2023-04-22T11:30:22;100849.06;;;20.89;40.02
23241;BME280;11789;53.482;9.862;2023-04-22T11:32:53;100850.78;;;20.90;40.22
23241;BME280;11789;53.482;9.862;2023-04-22T11:35:21;100842.97;;;20.88;40.60
23241;BME280;11789;53.482;9.862;2023-04-22T11:37:52;100835.75;;;20.93;40.49
23241;BME280;11789;53.482;9.862;2023-04-22T11:40:21;100835.91;;;21.09;41.10
23241;BME280;11789;53.482;9.862;2023-04-22T11:42:47;100833.00;;;21.15;39.89
23241;BME280;11789;53.482;9.862;2023-04-22T11:45:13;100829.50;;;21.15;39.73
23241;BME280;11789;53.482;9.862;2023-04-22T11:47:40;100829.03;;;21.25;40.02
23241;BME280;11789;53.482;9.862;2023-04-22T11:50:08;100829.87;;;21.26;39.51
23241;BME280;11789;53.482;9.862;2023-04-22T11:58:04;100816.91;;;20.84;40.02
23241;BME280;11789;53.482;9.862;2023-04-22T12:00:35;100805.84;;;20.76;40.69
23241;BME280;11789;53.482;9.862;2023-04-22T12:03:23;100802.50;;;20.72;41.19
23241;BME280;11789;53.482;9.862;2023-04-22T12:05:57;100819.44;;;20.85;40.98
23241;BME280;11789;53.482;9.862;2023-04-22T12:08:34;100815.88;;;20.86;40.06
23241;BME280;11789;53.482;9.862;2023-04-22T12:11:07;100811.44;;;20.88;38.60
23241;BME280;11789;53.482;9.862;2023-04-22T12:16:04;100799.00;;;20.92;38.27
23241;BME280;11789;53.482;9.862;2023-04-22T12:18:37;100798.03;;;20.94;38.19
23241;BME280;11789;53.482;9.862;2023-04-22T12:23:29;100787.25;;;21.19;38.21
23241;BME280;11789;53.482;9.862;2023-04-22T12:25:56;100792.97;;;21.28;37.67
23241;BME280;11789;53.482;9.862;2023-04-22T12:28:22;100792.06;;;21.29;36.84
23241;BME280;11789;53.482;9.862;2023-04-22T12:30:47;100783.78;;;21.38;37.53
23241;BME280;11789;53.482;9.862;2023-04-22T12:33:13;100782.84;;;21.39;37.00
23241;BME280;11789;53.482;9.862;2023-04-22T12:35:38;100773.25;;;21.38;38.17
23241;BME280;11789;53.482;9.862;2023-04-22T12:38:03;100771.12;;;21.46;37.81
23241;BME280;11789;53.482;9.862;2023-04-22T12:40:29;100768.41;;;21.47;37.09
23241;BME280;11789;53.482;9.862;2023-04-22T12:42:54;100770.09;;;21.48;37.27
23241;BME280;11789;53.482;9.862;2023-04-22T12:45:20;100764.12;;;21.64;37.00
23241;BME280;11789;53.482;9.862;2023-04-22T12:47:48;100759.13;;;21.76;36.13
23241;BME280;11789;53.482;9.862;2023-04-22T12:50:14;100752.16;;;21.75;36.22
23241;BME280;11789;53.482;9.862;2023-04-22T12:52:40;100759.34;;;21.72;36.09
23241;BME280;11789;53.482;9.862;2023-04-22T12:55:06;100755.00;;;21.71;36.31
23241;BME280;11789;53.482;9.862;2023-04-22T12:57:32;100761.22;;;21.70;36.25
23241;BME280;11789;53.482;9.862;2023-04-22T12:59:57;100764.91;;;21.66;35.95
23241;BME280;11789;53.482;9.862;2023-04-22T13:02:23;100746.94;;;21.57;37.42
23241;BME280;11789;53.482;9.862;2023-04-22T13:04:49;100749.22;;;21.45;38.05
23241;BME280;11789;53.482;9.862;2023-04-22T13:07:14;100744.09;;;21.42;38.55